sensor_id;sensor_type;location;lat;lon;timestamp;pressure;altitude;pressure_sealevel;temperature;humidity
77662;BME280;69666;52.136;5.424;2023-07-09T00:00:34;101793.44;;;23.73;89.15
77662;BME280;69666;52.136;5.424;2023-07-09T00:11:07;101789.66;;;23.62;89.34
77662;BME280;69666;52.136;5.424;2023-07-09T00:13:33;101794.22;;;23.62;89.57
77662;BME280;69666;52.136;5.424;2023-07-09T00:16:11;101798.81;;;23.61;89.87
77662;BME280;69666;52.136;5.424;2023-07-09T00:18:40;101800.66;;;23.61;89.68
77662;BME280;69666;52.136;5.424;2023-07-09T00:21:07;101795.69;;;23.55;89.37
77662;BME280;69666;52.136;5.424;2023-07-09T00:23:34;101803.19;;;23.51;89.11
77662;BME280;69666;52.136;5.424;2023-07-09T00:26:01;101814.22;;;23.48;89.68
77662;BME280;69666;52.136;5.424;2023-07-09T00:50:09;101816.78;;;23.13;90.87
77662;BME280;69666;52.136;5.424;2023-07-09T01:27:52;101819.88;;;22.69;92.98
77662;BME280;69666;52.136;5.424;2023-07-09T01:41:28;101822.06;;;22.50;94.60
77662;BME280;69666;52.136;5.424;2023-07-09T01:43:54;101821.34;;;22.48;93.94
77662;BME280;69666;52.136;5.424;2023-07-09T01:59:54;101844.69;;;22.24;94.54
77662;BME280;69666;52.136;5.424;2023-07-09T02:02:24;101845.66;;;22.23;95.29
77662;BME280;69666;52.136;5.424;2023-07-09T02:04:54;101839.47;;;22.20;95.63
77662;BME280;69666;52.136;5.424;2023-07-09T02:07:24;101850.31;;;22.20;95.24
77662;BME280;69666;52.136;5.424;2023-07-09T02:09:51;101837.81;;;22.18;95.81
77662;BME280;69666;52.136;5.424;2023-07-09T02:12:18;101839.78;;;22.16;95.43
77662;BME280;69666;52.136;5.424;2023-07-09T02:20:03;101841.03;;;22.10;95.59
77662;BME280;69666;52.136;5.424;2023-07-09T02:22:32;101846.56;;;22.09;96.54
77662;BME280;69666;52.136;5.424;2023-07-09T02:25:01;101837.78;;;22.05;96.34
77662;BME280;69666;52.136;5.424;2023-07-09T02:40:58;101841.38;;;21.92;96.58
77662;BME280;69666;52.136;5.424;2023-07-09T03:04:16;101839.38;;;21.67;98.08
77662;BME280;69666;52.136;5.424;2023-07-09T03:06:43;101840.56;;;21.63;98.02
77662;BME280;69666;52.136;5.424;2023-07-09T03:52:07;101846.47;;;21.41;100.00
77662;BME280;69666;52.136;5.424;2023-07-09T03:54:36;101856.22;;;21.43;99.98
77662;BME280;69666;52.136;5.424;2023-07-09T03:57:02;101853.50;;;21.43;100.00
77662;BME280;69666;52.136;5.424;2023-07-09T03:59:29;101858.94;;;21.43;100.00
77662;BME280;69666;52.136;5.424;2023-07-09T04:01:56;101864.34;;;21.43;100.00
77662;BME280;69666;52.136;5.424;2023-07-09T04:04:23;101865.22;;;21.44;100.00
77662;BME280;69666;52.136;5.424;2023-07-09T04:06:49;101859.78;;;21.44;100.00
77662;BME280;69666;52.136;5.424;2023-07-09T04:09:16;101858.75;;;21.46;100.00
77662;BME280;69666;52.136;5.424;2023-07-09T04:11:43;101861.44;;;21.46;100.00
77662;BME280;69666;52.136;5.424;2023-07-09T04:14:10;101870.25;;;21.50;100.00
77662;BME280;69666;52.136;5.424;2023-07-09T04:16:36;101860.31;;;21.51;100.00
77662;BME280;69666;52.136;5.424;2023-07-09T04:19:03;101860.31;;;21.51;100.00
77662;BME280;69666;52.136;5.424;2023-07-09T04:21:30;101868.34;;;21.52;100.00
77662;BME280;69666;52.136;5.424;2023-07-09T04:23:56;101863.75;;;21.53;100.00
77662;BME280;69666;52.136;5.424;2023-07-09T04:26:23;101863.56;;;21.56;100.00
77662;BME280;69666;52.136;5.424;2023-07-09T04:28:50;101869.75;;;21.58;100.00
77662;BME280;69666;52.136;5.424;2023-07-09T04:31:16;101866.19;;;21.57;100.00
77662;BME280;69666;52.136;5.424;2023-07-09T04:33:43;101868.72;;;21.60;99.94
77662;BME280;69666;52.136;5.424;2023-07-09T04:36:11;101861.34;;;21.62;99.93
77662;BME280;69666;52.136;5.424;2023-07-09T04:38:39;101862.97;;;21.65;99.71
77662;BME280;69666;52.136;5.424;2023-07-09T04:41:06;101869.19;;;21.67;100.00
77662;BME280;69666;52.136;5.424;2023-07-09T04:43:33;101863.56;;;21.70;99.51
77662;BME280;69666;52.136;5.424;2023-07-09T04:46:00;101865.22;;;21.72;100.00
77662;BME280;69666;52.136;5.424;2023-07-09T04:48:27;101859.56;;;21.75;100.00
77662;BME280;69666;52.136;5.424;2023-07-09T04:50:53;101867.53;;;21.78;100.00
77662;BME280;69666;52.136;5.424;2023-07-09T04:53:20;101861.91;;;21.81;100.00
77662;BME280;69666;52.136;5.424;2023-07-09T04:55:47;101860.72;;;21.85;100.00
77662;BME280;69666;52.136;5.424;2023-07-09T04:58:14;101863.25;;;21.89;100.00
77662;BME280;69666;52.136;5.424;2023-07-09T05:00:41;101861.13;;;21.94;100.00
77662;BME280;69666;52.136;5.424;2023-07-09T05:03:09;101856.34;;;21.97;99.94
77662;BME280;69666;52.136;5.424;2023-07-09T05:05:42;101854.25;;;22.02;99.42
77662;BME280;69666;52.136;5.424;2023-07-09T05:08:08;101850.25;;;22.08;99.60
77662;BME280;69666;52.136;5.424;2023-07-09T05:10:41;101850.94;;;22.11;98.92
77662;BME280;69666;52.136;5.424;2023-07-09T05:13:09;101846.81;;;22.18;99.45
77662;BME280;69666;52.136;5.424;2023-07-09T05:15:39;101851.09;;;22.23;98.63
77662;BME280;69666;52.136;5.424;2023-07-09T05:18:07;101856.97;;;22.29;99.13
77662;BME280;69666;52.136;5.424;2023-07-09T05:20:34;101852.00;;;22.36;98.66
77662;BME280;69666;52.136;5.424;2023-07-09T05:23:01;101856.03;;;22.43;98.83
77662;BME280;69666;52.136;5.424;2023-07-09T05:25:28;101856.50;;;22.49;99.54
77662;BME280;69666;52.136;5.424;2023-07-09T05:27:55;101846.97;;;22.56;98.94
77662;BME280;69666;52.136;5.424;2023-07-09T05:30:22;101851.00;;;22.64;99.88
77662;BME280;69666;52.136;5.424;2023-07-09T05:32:48;101849.63;;;22.71;99.77
77662;BME280;69666;52.136;5.424;2023-07-09T05:35:15;101850.84;;;22.79;99.64
77662;BME280;69666;52.136;5.424;2023-07-09T05:37:42;101848.47;;;22.87;98.85
77662;BME280;69666;52.136;5.424;2023-07-09T05:40:08;101840.66;;;22.96;98.49
77662;BME280;69666;52.136;5.424;2023-07-09T05:42:35;101848.16;;;23.05;98.38
77662;BME280;69666;52.136;5.424;2023-07-09T05:45:02;101850.97;;;23.16;98.13
77662;BME280;69666;52.136;5.424;2023-07-09T05:47:29;101845.66;;;23.27;96.77
77662;BME280;69666;52.136;5.424;2023-07-09T05:49:56;101847.41;;;23.41;96.82
77662;BME280;69666;52.136;5.424;2023-07-09T05:52:23;101846.34;;;23.56;97.53
77662;BME280;69666;52.136;5.424;2023-07-09T05:54:51;101858.78;;;23.71;96.56
77662;BME280;69666;52.136;5.424;2023-07-09T05:57:18;101864.00;;;23.87;95.47
77662;BME280;69666;52.136;5.424;2023-07-09T05:59:45;101863.97;;;23.99;94.18
77662;BME280;69666;52.136;5.424;2023-07-09T06:02:19;101860.84;;;24.17;93.49
77662;BME280;69666;52.136;5.424;2023-07-09T06:04:47;101864.53;;;24.28;91.46
77662;BME280;69666;52.136;5.424;2023-07-09T06:07:16;101871.88;;;24.39;90.13
77662;BME280;69666;52.136;5.424;2023-07-09T06:09:45;101869.34;;;24.49;89.12
77662;BME280;69666;52.136;5.424;2023-07-09T06:12:12;101864.81;;;24.60;88.83
77662;BME280;69666;52.136;5.424;2023-07-09T06:14:39;101867.69;;;24.70;89.48
77662;BME280;69666;52.136;5.424;2023-07-09T06:17:05;101866.84;;;24.81;88.99
77662;BME280;69666;52.136;5.424;2023-07-09T06:19:32;101874.88;;;24.95;87.58
77662;BME280;69666;52.136;5.424;2023-07-09T06:21:59;101871.06;;;25.08;86.11
77662;BME280;69666;52.136;5.424;2023-07-09T06:24:25;101870.94;;;25.21;87.64
77662;BME280;69666;52.136;5.424;2023-07-09T06:26:52;101871.59;;;25.36;86.44
77662;BME280;69666;52.136;5.424;2023-07-09T06:29:19;101868.38;;;25.53;87.41
77662;BME280;69666;52.136;5.424;2023-07-09T06:31:46;101872.50;;;25.70;86.71
77662;BME280;69666;52.136;5.424;2023-07-09T06:34:12;101875.34;;;25.91;87.05
77662;BME280;69666;52.136;5.424;2023-07-09T06:36:39;101875.69;;;26.08;87.88
77662;BME280;69666;52.136;5.424;2023-07-09T06:39:09;101876.03;;;26.26;87.40
77662;BME280;69666;52.136;5.424;2023-07-09T06:41:36;101873.75;;;26.42;86.53
77662;BME280;69666;52.136;5.424;2023-07-09T06:44:06;101879.69;;;26.59;87.18
77662;BME280;69666;52.136;5.424;2023-07-09T06:46:33;101880.69;;;26.78;85.13
77662;BME280;69666;52.136;5.424;2023-07-09T06:49:01;101875.16;;;27.01;85.42
77662;BME280;69666;52.136;5.424;2023-07-09T06:54:31;101877.28;;;27.48;84.66
77662;BME280;69666;52.136;5.424;2023-07-09T06:56:58;101882.03;;;27.67;81.43
77662;BME280;69666;52.136;5.424;2023-07-09T06:59:24;101870.31;;;27.95;80.47
77662;BME280;69666;52.136;5.424;2023-07-09T07:01:51;101872.38;;;28.13;78.35
77662;BME280;69666;52.136;5.424;2023-07-09T07:04:18;101870.59;;;28.32;80.47
77662;BME280;69666;52.136;5.424;2023-07-09T07:06:44;101882.44;;;28.52;79.13
77662;BME280;69666;52.136;5.424;2023-07-09T07:09:14;101877.66;;;28.74;77.16
77662;BME280;69666;52.136;5.424;2023-07-09T07:11:41;101873.94;;;28.94;78.83
77662;BME280;69666;52.136;5.424;2023-07-09T07:14:07;101867.13;;;29.17;76.83
77662;BME280;69666;52.136;5.424;2023-07-09T07:16:34;101869.94;;;29.35;76.82
77662;BME280;69666;52.136;5.424;2023-07-09T07:19:01;101869.75;;;29.56;76.61
77662;BME280;69666;52.136;5.424;2023-07-09T07:21:28;101867.97;;;29.74;76.49
77662;BME280;69666;52.136;5.424;2023-07-09T07:23:54;101872.06;;;29.97;76.76
77662;BME280;69666;52.136;5.424;2023-07-09T07:26:21;101866.25;;;30.28;76.41
77662;BME280;69666;52.136;5.424;2023-07-09T07:28:48;101862.31;;;30.48;72.21
77662;BME280;69666;52.136;5.424;2023-07-09T07:31:14;101863.84;;;30.60;72.21
77662;BME280;69666;52.136;5.424;2023-07-09T07:33:41;101865.00;;;30.75;71.56
77662;BME280;69666;52.136;5.424;2023-07-09T07:36:09;101870.16;;;30.96;72.99
77662;BME280;69666;52.136;5.424;2023-07-09T07:38:39;101870.19;;;31.14;73.60
77662;BME280;69666;52.136;5.424;2023-07-09T07:41:06;101865.69;;;31.39;70.41
77662;BME280;69666;52.136;5.424;2023-07-09T07:43:33;101860.59;;;31.52;67.73
77662;BME280;69666;52.136;5.424;2023-07-09T07:46:00;101871.25;;;31.81;68.48
77662;BME280;69666;52.136;5.424;2023-07-09T07:48:27;101867.25;;;32.01;68.37
77662;BME280;69666;52.136;5.424;2023-07-09T07:51:01;101865.97;;;32.30;68.98
77662;BME280;69666;52.136;5.424;2023-07-09T07:53:30;101864.63;;;32.58;66.32
77662;BME280;69666;52.136;5.424;2023-07-09T07:55:57;101867.03;;;32.69;67.60
77662;BME280;69666;52.136;5.424;2023-07-09T07:58:24;101866.56;;;32.82;67.88
77662;BME280;69666;52.136;5.424;2023-07-09T08:00:55;101868.97;;;32.93;64.11
77662;BME280;69666;52.136;5.424;2023-07-09T08:03:24;101854.16;;;32.86;64.17
77662;BME280;69666;52.136;5.424;2023-07-09T08:05:51;101862.75;;;32.99;60.52
77662;BME280;69666;52.136;5.424;2023-07-09T08:08:18;101865.16;;;33.02;64.98
77662;BME280;69666;52.136;5.424;2023-07-09T08:10:44;101868.09;;;33.00;63.17
77662;BME280;69666;52.136;5.424;2023-07-09T08:13:11;101857.75;;;33.19;62.97
77662;BME280;69666;52.136;5.424;2023-07-09T08:15:38;101870.50;;;33.20;62.58
77662;BME280;69666;52.136;5.424;2023-07-09T08:18:04;101869.84;;;33.26;61.83
77662;BME280;69666;52.136;5.424;2023-07-09T08:20:31;101866.19;;;33.42;61.06
77662;BME280;69666;52.136;5.424;2023-07-09T08:22:59;101859.25;;;33.46;60.80
77662;BME280;69666;52.136;5.424;2023-07-09T08:25:26;101852.66;;;33.55;60.54
77662;BME280;69666;52.136;5.424;2023-07-09T08:27:53;101850.19;;;33.76;63.89
77662;BME280;69666;52.136;5.424;2023-07-09T08:30:19;101854.50;;;33.79;57.75
77662;BME280;69666;52.136;5.424;2023-07-09T08:32:46;101862.75;;;33.87;61.37
77662;BME280;69666;52.136;5.424;2023-07-09T08:35:13;101863.28;;;33.90;59.72
77662;BME280;69666;52.136;5.424;2023-07-09T08:37:59;101863.97;;;33.92;60.41
77662;BME280;69666;52.136;5.424;2023-07-09T08:40:26;101861.31;;;34.07;57.56
77662;BME280;69666;52.136;5.424;2023-07-09T08:43:02;101856.72;;;34.22;59.78
77662;BME280;69666;52.136;5.424;2023-07-09T08:45:47;101856.69;;;34.30;58.88
77662;BME280;69666;52.136;5.424;2023-07-09T08:48:30;101856.75;;;34.45;61.91
77662;BME280;69666;52.136;5.424;2023-07-09T08:51:21;101853.84;;;34.61;56.63
77662;BME280;69666;52.136;5.424;2023-07-09T08:53:57;101849.03;;;34.86;61.60
77662;BME280;69666;52.136;5.424;2023-07-09T08:56:27;101847.16;;;35.01;58.73
77662;BME280;69666;52.136;5.424;2023-07-09T08:59:00;101847.38;;;35.14;53.37
77662;BME280;69666;52.136;5.424;2023-07-09T09:01:40;101842.25;;;35.26;56.80
77662;BME280;69666;52.136;5.424;2023-07-09T09:04:24;101844.66;;;35.29;53.51
77662;BME280;69666;52.136;5.424;2023-07-09T09:07:18;101841.59;;;35.39;54.39
77662;BME280;69666;52.136;5.424;2023-07-09T09:09:58;101838.44;;;35.42;53.79
77662;BME280;69666;52.136;5.424;2023-07-09T09:12:36;101846.56;;;35.43;51.46
77662;BME280;69666;52.136;5.424;2023-07-09T09:15:14;101844.56;;;35.52;53.66
77662;BME280;69666;52.136;5.424;2023-07-09T09:17:42;101840.44;;;35.63;51.18
77662;BME280;69666;52.136;5.424;2023-07-09T09:20:19;101840.66;;;35.76;49.71
77662;BME280;69666;52.136;5.424;2023-07-09T09:22:58;101842.06;;;35.72;50.46
77662;BME280;69666;52.136;5.424;2023-07-09T09:25:41;101838.81;;;35.83;51.58
77662;BME280;69666;52.136;5.424;2023-07-09T09:28:08;101844.00;;;35.86;47.66
77662;BME280;69666;52.136;5.424;2023-07-09T09:30:35;101843.75;;;36.02;48.67
77662;BME280;69666;52.136;5.424;2023-07-09T09:33:07;101839.28;;;36.01;49.44
77662;BME280;69666;52.136;5.424;2023-07-09T09:35:41;101833.44;;;36.11;48.43
77662;BME280;69666;52.136;5.424;2023-07-09T09:38:13;101830.44;;;36.27;50.63
77662;BME280;69666;52.136;5.424;2023-07-09T09:40:40;101831.09;;;36.29;46.62
77662;BME280;69666;52.136;5.424;2023-07-09T09:43:18;101830.28;;;36.35;48.43
77662;BME280;69666;52.136;5.424;2023-07-09T09:45:48;101834.25;;;36.47;48.08
77662;BME280;69666;52.136;5.424;2023-07-09T09:48:27;101827.75;;;36.55;46.70
77662;BME280;69666;52.136;5.424;2023-07-09T09:50:55;101828.06;;;36.67;46.69
77662;BME280;69666;52.136;5.424;2023-07-09T09:53:29;101819.81;;;36.73;44.86
77662;BME280;69666;52.136;5.424;2023-07-09T09:56:04;101814.31;;;36.80;46.16
77662;BME280;69666;52.136;5.424;2023-07-09T09:58:32;101813.75;;;36.91;41.79
77662;BME280;69666;52.136;5.424;2023-07-09T10:00:59;101806.97;;;36.93;42.57
77662;BME280;69666;52.136;5.424;2023-07-09T10:03:35;101807.47;;;37.04;44.53
77662;BME280;69666;52.136;5.424;2023-07-09T10:06:14;101806.22;;;37.13;45.56
77662;BME280;69666;52.136;5.424;2023-07-09T10:14:35;101800.84;;;37.33;46.13
77662;BME280;69666;52.136;5.424;2023-07-09T10:17:23;101796.00;;;37.41;51.07
77662;BME280;69666;52.136;5.424;2023-07-09T10:36:17;101787.38;;;37.71;47.54
77662;BME280;69666;52.136;5.424;2023-07-09T10:39:06;101789.53;;;37.75;45.62
77662;BME280;69666;52.136;5.424;2023-07-09T10:41:37;101797.25;;;37.73;46.62
77662;BME280;69666;52.136;5.424;2023-07-09T10:46:45;101797.00;;;37.68;50.88
77662;BME280;69666;52.136;5.424;2023-07-09T10:49:17;101808.84;;;37.49;47.46
77662;BME280;69666;52.136;5.424;2023-07-09T10:52:03;101798.41;;;37.16;48.60
77662;BME280;69666;52.136;5.424;2023-07-09T10:57:24;101795.31;;;36.77;49.20
77662;BME280;69666;52.136;5.424;2023-07-09T10:59:52;101788.56;;;36.65;47.06
77662;BME280;69666;52.136;5.424;2023-07-09T11:02:29;101800.53;;;36.44;48.64
77662;BME280;69666;52.136;5.424;2023-07-09T11:05:00;101797.75;;;36.23;48.17
77662;BME280;69666;52.136;5.424;2023-07-09T11:07:40;101803.94;;;36.25;49.96
77662;BME280;69666;52.136;5.424;2023-07-09T11:11:17;101802.97;;;36.17;51.44
77662;BME280;69666;52.136;5.424;2023-07-09T11:13:40;101818.41;;;36.05;54.25
77662;BME280;69666;52.136;5.424;2023-07-09T11:16:40;101818.75;;;35.52;52.71
77662;BME280;69666;52.136;5.424;2023-07-09T11:19:17;101809.47;;;35.15;52.60
77662;BME280;69666;52.136;5.424;2023-07-09T11:25:08;101790.03;;;34.63;55.08
77662;BME280;69666;52.136;5.424;2023-07-09T11:27:52;101786.41;;;34.48;53.98
77662;BME280;69666;52.136;5.424;2023-07-09T11:30:25;101778.47;;;34.45;54.91
77662;BME280;69666;52.136;5.424;2023-07-09T11:32:58;101774.72;;;34.37;55.31
77662;BME280;69666;52.136;5.424;2023-07-09T11:35:48;101783.78;;;34.23;54.81
77662;BME280;69666;52.136;5.424;2023-07-09T11:38:20;101782.03;;;34.30;55.30
77662;BME280;69666;52.136;5.424;2023-07-09T11:40:50;101788.63;;;34.21;54.97
77662;BME280;69666;52.136;5.424;2023-07-09T11:43:33;101793.25;;;34.29;56.10
77662;BME280;69666;52.136;5.424;2023-07-09T11:46:11;101794.63;;;34.33;57.71
77662;BME280;69666;52.136;5.424;2023-07-09T11:48:41;101796.03;;;34.29;57.57
77662;BME280;69666;52.136;5.424;2023-07-09T11:51:15;101795.56;;;34.25;59.58
77662;BME280;69666;52.136;5.424;2023-07-09T11:53:48;101796.38;;;34.03;57.33
77662;BME280;69666;52.136;5.424;2023-07-09T11:56:22;101792.19;;;34.07;55.88
77662;BME280;69666;52.136;5.424;2023-07-09T11:58:54;101799.94;;;34.12;58.70
77662;BME280;69666;52.136;5.424;2023-07-09T12:01:28;101794.03;;;34.15;58.88
77662;BME280;69666;52.136;5.424;2023-07-09T12:03:57;101799.00;;;34.19;59.45
77662;BME280;69666;52.136;5.424;2023-07-09T12:06:28;101811.97;;;34.19;59.29
77662;BME280;69666;52.136;5.424;2023-07-09T12:08:55;101819.09;;;34.13;57.43
77662;BME280;69666;52.136;5.424;2023-07-09T12:11:31;101821.09;;;33.96;55.80
77662;BME280;69666;52.136;5.424;2023-07-09T12:14:09;101821.00;;;33.82;55.86
77662;BME280;69666;52.136;5.424;2023-07-09T12:16:42;101825.91;;;33.55;55.76
77662;BME280;69666;52.136;5.424;2023-07-09T12:19:13;101829.44;;;33.41;58.00
77662;BME280;69666;52.136;5.424;2023-07-09T12:21:44;101832.75;;;33.28;55.90
77662;BME280;69666;52.136;5.424;2023-07-09T12:24:21;101838.59;;;33.25;58.97
77662;BME280;69666;52.136;5.424;2023-07-09T12:26:51;101834.63;;;33.12;58.05
77662;BME280;69666;52.136;5.424;2023-07-09T12:29:18;101840.38;;;32.86;53.62
77662;BME280;69666;52.136;5.424;2023-07-09T12:31:45;101834.09;;;32.68;55.78
77662;BME280;69666;52.136;5.424;2023-07-09T12:34:14;101836.72;;;32.53;55.58
77662;BME280;69666;52.136;5.424;2023-07-09T12:36:48;101828.78;;;32.34;55.70
77662;BME280;69666;52.136;5.424;2023-07-09T12:39:18;101813.22;;;32.24;57.20
77662;BME280;69666;52.136;5.424;2023-07-09T12:41:48;101813.91;;;32.26;61.21
77662;BME280;69666;52.136;5.424;2023-07-09T12:44:20;101824.91;;;32.10;58.46
77662;BME280;69666;52.136;5.424;2023-07-09T12:46:49;101831.06;;;31.96;60.67
77662;BME280;69666;52.136;5.424;2023-07-09T12:49:26;101836.50;;;31.80;57.23
77662;BME280;69666;52.136;5.424;2023-07-09T12:51:54;101834.94;;;31.77;56.58
77662;BME280;69666;52.136;5.424;2023-07-09T12:54:21;101836.63;;;31.70;58.18
77662;BME280;69666;52.136;5.424;2023-07-09T12:56:59;101832.69;;;31.73;58.24
77662;BME280;69666;52.136;5.424;2023-07-09T12:59:36;101828.88;;;31.66;57.17
77662;BME280;69666;52.136;5.424;2023-07-09T13:02:21;101821.63;;;31.65;56.79
77662;BME280;69666;52.136;5.424;2023-07-09T13:04:49;101816.31;;;31.71;57.89
77662;BME280;69666;52.136;5.424;2023-07-09T13:07:38;101820.81;;;31.80;59.73
77662;BME280;69666;52.136;5.424;2023-07-09T13:10:29;101828.44;;;31.86;58.00
77662;BME280;69666;52.136;5.424;2023-07-09T13:13:01;101824.97;;;31.84;58.86
77662;BME280;69666;52.136;5.424;2023-07-09T13:15:39;101817.28;;;31.96;59.41
77662;BME280;69666;52.136;5.424;2023-07-09T13:18:10;101823.66;;;31.97;56.69
77662;BME280;69666;52.136;5.424;2023-07-09T13:20:40;101824.28;;;31.82;56.25
77662;BME280;69666;52.136;5.424;2023-07-09T13:23:18;101839.94;;;31.82;53.37
77662;BME280;69666;52.136;5.424;2023-07-09T13:25:45;101858.13;;;31.67;55.28
77662;BME280;69666;52.136;5.424;2023-07-09T13:28:24;101852.84;;;31.47;54.67
77662;BME280;69666;52.136;5.424;2023-07-09T13:31:01;101854.94;;;31.28;56.35
77662;BME280;69666;52.136;5.424;2023-07-09T13:33:35;101861.16;;;31.30;55.97
77662;BME280;69666;52.136;5.424;2023-07-09T13:36:06;101856.31;;;31.24;54.17
77662;BME280;69666;52.136;5.424;2023-07-09T13:38:34;101851.59;;;31.16;55.78
77662;BME280;69666;52.136;5.424;2023-07-09T13:41:11;101855.22;;;31.16;55.66
77662;BME280;69666;52.136;5.424;2023-07-09T13:43:42;101851.50;;;31.08;53.04
77662;BME280;69666;52.136;5.424;2023-07-09T13:46:10;101847.09;;;30.89;54.28
77662;BME280;69666;52.136;5.424;2023-07-09T13:48:39;101840.31;;;30.83;56.51
77662;BME280;69666;52.136;5.424;2023-07-09T13:51:19;101841.22;;;30.66;54.18
77662;BME280;69666;52.136;5.424;2023-07-09T13:53:49;101837.38;;;30.59;55.25
77662;BME280;69666;52.136;5.424;2023-07-09T13:56:17;101834.69;;;30.49;55.36
77662;BME280;69666;52.136;5.424;2023-07-09T13:58:44;101845.06;;;30.38;55.46
77662;BME280;69666;52.136;5.424;2023-07-09T14:01:17;101837.13;;;30.17;55.04
77662;BME280;69666;52.136;5.424;2023-07-09T14:03:45;101837.63;;;30.03;55.11
77662;BME280;69666;52.136;5.424;2023-07-09T14:06:13;101838.69;;;29.92;56.88
77662;BME280;69666;52.136;5.424;2023-07-09T14:08:41;101841.22;;;29.76;58.11
77662;BME280;69666;52.136;5.424;2023-07-09T14:11:16;101850.34;;;29.30;56.58
77662;BME280;69666;52.136;5.424;2023-07-09T14:13:45;101853.56;;;29.06;58.26
77662;BME280;69666;52.136;5.424;2023-07-09T14:16:13;101855.16;;;28.99;58.85
77662;BME280;69666;52.136;5.424;2023-07-09T14:18:41;101860.81;;;28.97;60.86
77662;BME280;69666;52.136;5.424;2023-07-09T14:21:17;101853.00;;;28.74;60.01
77662;BME280;69666;52.136;5.424;2023-07-09T14:23:45;101837.72;;;28.61;60.46
77662;BME280;69666;52.136;5.424;2023-07-09T14:26:12;101824.75;;;28.44;61.19
77662;BME280;69666;52.136;5.424;2023-07-09T14:28:39;101836.84;;;28.32;61.98
77662;BME280;69666;52.136;5.424;2023-07-09T14:31:27;101839.97;;;28.08;61.38
77662;BME280;69666;52.136;5.424;2023-07-09T14:33:56;101849.41;;;27.85;62.63
77662;BME280;69666;52.136;5.424;2023-07-09T14:36:25;101849.22;;;27.67;63.43
77662;BME280;69666;52.136;5.424;2023-07-09T14:38:52;101854.53;;;27.48;64.67
77662;BME280;69666;52.136;5.424;2023-07-09T14:41:24;101863.31;;;27.42;64.92
77662;BME280;69666;52.136;5.424;2023-07-09T14:43:58;101855.44;;;27.27;65.53
77662;BME280;69666;52.136;5.424;2023-07-09T14:46:25;101874.72;;;27.05;65.56
77662;BME280;69666;52.136;5.424;2023-07-09T14:48:52;101927.34;;;26.86;65.38
77662;BME280;69666;52.136;5.424;2023-07-09T14:51:18;102061.50;;;26.72;67.16
77662;BME280;69666;52.136;5.424;2023-07-09T14:53:46;102133.19;;;26.65;70.69
77662;BME280;69666;52.136;5.424;2023-07-09T14:56:14;102134.28;;;26.40;72.43
77662;BME280;69666;52.136;5.424;2023-07-09T14:58:41;102112.66;;;26.26;77.19
77662;BME280;69666;52.136;5.424;2023-07-09T15:01:14;102099.59;;;26.07;81.31
77662;BME280;69666;52.136;5.424;2023-07-09T15:03:41;102044.38;;;25.92;89.01
77662;BME280;69666;52.136;5.424;2023-07-09T15:06:08;102001.72;;;25.80;96.50
77662;BME280;69666;52.136;5.424;2023-07-09T15:08:35;101984.69;;;25.65;100.00
77662;BME280;69666;52.136;5.424;2023-07-09T15:11:04;101962.44;;;25.48;100.00
77662;BME280;69666;52.136;5.424;2023-07-09T15:13:36;101981.88;;;25.43;100.00
77662;BME280;69666;52.136;5.424;2023-07-09T15:16:04;101983.63;;;25.44;100.00
77662;BME280;69666;52.136;5.424;2023-07-09T15:18:32;101977.19;;;25.45;100.00
77662;BME280;69666;52.136;5.424;2023-07-09T15:21:03;101976.19;;;25.46;100.00
77662;BME280;69666;52.136;5.424;2023-07-09T15:23:39;101971.38;;;25.50;100.00
77662;BME280;69666;52.136;5.424;2023-07-09T15:26:13;101950.94;;;25.55;100.00
77662;BME280;69666;52.136;5.424;2023-07-09T15:28:40;101939.88;;;25.45;100.00
77662;BME280;69666;52.136;5.424;2023-07-09T15:31:11;101937.38;;;25.42;100.00
77662;BME280;69666;52.136;5.424;2023-07-09T15:33:38;101939.75;;;25.36;100.00
77662;BME280;69666;52.136;5.424;2023-07-09T15:36:10;101937.63;;;25.28;100.00
77662;BME280;69666;52.136;5.424;2023-07-09T15:38:38;101943.84;;;25.30;100.00
77662;BME280;69666;52.136;5.424;2023-07-09T15:41:13;101946.75;;;25.16;100.00
77662;BME280;69666;52.136;5.424;2023-07-09T15:43:44;101938.56;;;25.05;100.00
77662;BME280;69666;52.136;5.424;2023-07-09T15:46:20;101944.34;;;25.00;100.00
77662;BME280;69666;52.136;5.424;2023-07-09T15:48:49;101938.16;;;24.98;100.00
77662;BME280;69666;52.136;5.424;2023-07-09T15:51:16;101953.41;;;24.88;100.00
77662;BME280;69666;52.136;5.424;2023-07-09T15:53:43;101951.41;;;24.79;100.00
77662;BME280;69666;52.136;5.424;2023-07-09T15:56:30;101945.66;;;24.71;100.00
77662;BME280;69666;52.136;5.424;2023-07-09T15:58:59;101949.00;;;24.63;100.00
77662;BME280;69666;52.136;5.424;2023-07-09T16:01:27;101938.78;;;24.54;100.00
77662;BME280;69666;52.136;5.424;2023-07-09T16:03:59;101931.19;;;24.47;100.00
77662;BME280;69666;52.136;5.424;2023-07-09T16:06:27;101933.16;;;24.45;100.00
77662;BME280;69666;52.136;5.424;2023-07-09T16:08:54;101929.91;;;24.40;100.00
77662;BME280;69666;52.136;5.424;2023-07-09T16:11:23;101944.50;;;24.38;100.00
77662;BME280;69666;52.136;5.424;2023-07-09T16:13:52;101940.50;;;24.31;100.00
77662;BME280;69666;52.136;5.424;2023-07-09T16:16:22;101944.97;;;24.32;100.00
77662;BME280;69666;52.136;5.424;2023-07-09T16:18:50;101950.16;;;24.35;100.00
77662;BME280;69666;52.136;5.424;2023-07-09T16:21:28;101947.81;;;24.31;100.00
77662;BME280;69666;52.136;5.424;2023-07-09T16:23:58;101952.69;;;24.26;100.00
77662;BME280;69666;52.136;5.424;2023-07-09T16:26:26;101951.06;;;24.23;100.00
77662;BME280;69666;52.136;5.424;2023-07-09T16:28:53;101957.94;;;24.29;100.00
77662;BME280;69666;52.136;5.424;2023-07-09T16:31:20;101957.81;;;24.30;100.00